sensor_id;sensor_type;location;lat;lon;timestamp;P1;durP1;ratioP1;P2;durP2;ratioP2
69937;SDS011;57248;47.320;15.998;2023-01-16T00:02:25;17.88;;;7.90;;
69937;SDS011;57248;47.320;15.998;2023-01-16T00:04:57;19.98;;;8.07;;
69937;SDS011;57248;47.320;15.998;2023-01-16T00:07:29;17.30;;;8.20;;
69937;SDS011;57248;47.320;15.998;2023-01-16T00:10:01;18.08;;;8.50;;
69937;SDS011;57248;47.320;15.998;2023-01-16T00:12:34;16.70;;;8.07;;
69937;SDS011;57248;47.320;15.998;2023-01-16T00:15:06;18.77;;;7.65;;
69937;SDS011;57248;47.320;15.998;2023-01-16T00:17:39;16.63;;;8.50;;
69937;SDS011;57248;47.320;15.998;2023-01-16T00:20:11;17.27;;;8.47;;
69937;SDS011;57248;47.320;15.998;2023-01-16T00:22:43;16.42;;;8.35;;
69937;SDS011;57248;47.320;15.998;2023-01-16T00:25:15;14.77;;;7.55;;
69937;SDS011;57248;47.320;15.998;2023-01-16T00:27:54;15.93;;;7.75;;
69937;SDS011;57248;47.320;15.998;2023-01-16T00:30:26;16.75;;;7.88;;
69937;SDS011;57248;47.320;15.998;2023-01-16T00:32:58;16.33;;;7.27;;
69937;SDS011;57248;47.320;15.998;2023-01-16T00:35:30;15.30;;;7.82;;
69937;SDS011;57248;47.320;15.998;2023-01-16T00:37:56;15.50;;;8.07;;
69937;SDS011;57248;47.320;15.998;2023-01-16T00:40:28;18.65;;;8.45;;
69937;SDS011;57248;47.320;15.998;2023-01-16T00:43:00;18.70;;;7.83;;
69937;SDS011;57248;47.320;15.998;2023-01-16T00:45:32;15.50;;;7.43;;
69937;SDS011;57248;47.320;15.998;2023-01-16T00:48:04;14.68;;;7.05;;
69937;SDS011;57248;47.320;15.998;2023-01-16T00:50:37;14.50;;;7.25;;
69937;SDS011;57248;47.320;15.998;2023-01-16T00:53:09;17.02;;;7.70;;
69937;SDS011;57248;47.320;15.998;2023-01-16T00:55:41;15.20;;;7.40;;
69937;SDS011;57248;47.320;15.998;2023-01-16T00:58:13;15.95;;;7.78;;
69937;SDS011;57248;47.320;15.998;2023-01-16T01:00:45;14.15;;;7.15;;
69937;SDS011;57248;47.320;15.998;2023-01-16T01:03:17;14.48;;;7.38;;
69937;SDS011;57248;47.320;15.998;2023-01-16T01:05:49;15.02;;;7.63;;
69937;SDS011;57248;47.320;15.998;2023-01-16T01:08:21;13.23;;;6.07;;
69937;SDS011;57248;47.320;15.998;2023-01-16T01:10:53;14.07;;;6.10;;
69937;SDS011;57248;47.320;15.998;2023-01-16T01:13:25;15.88;;;6.43;;
69937;SDS011;57248;47.320;15.998;2023-01-16T01:15:57;15.48;;;7.10;;
69937;SDS011;57248;47.320;15.998;2023-01-16T01:18:29;13.75;;;6.65;;
69937;SDS011;57248;47.320;15.998;2023-01-16T01:21:16;15.43;;;7.27;;
69937;SDS011;57248;47.320;15.998;2023-01-16T01:23:48;14.10;;;6.38;;
69937;SDS011;57248;47.320;15.998;2023-01-16T01:26:34;15.05;;;6.97;;
69937;SDS011;57248;47.320;15.998;2023-01-16T01:29:06;13.40;;;6.57;;
69937;SDS011;57248;47.320;15.998;2023-01-16T01:31:38;12.90;;;5.63;;
69937;SDS011;57248;47.320;15.998;2023-01-16T01:34:03;15.87;;;6.50;;
69937;SDS011;57248;47.320;15.998;2023-01-16T01:36:35;12.25;;;5.32;;
69937;SDS011;57248;47.320;15.998;2023-01-16T01:39:07;11.07;;;5.17;;
69937;SDS011;57248;47.320;15.998;2023-01-16T01:41:39;12.68;;;4.95;;
69937;SDS011;57248;47.320;15.998;2023-01-16T01:47:16;12.05;;;5.20;;
69937;SDS011;57248;47.320;15.998;2023-01-16T01:49:52;12.68;;;5.95;;
69937;SDS011;57248;47.320;15.998;2023-01-16T01:52:26;14.83;;;6.00;;
69937;SDS011;57248;47.320;15.998;2023-01-16T01:55:02;12.90;;;6.90;;
69937;SDS011;57248;47.320;15.998;2023-01-16T01:57:37;12.68;;;5.97;;
69937;SDS011;57248;47.320;15.998;2023-01-16T02:00:24;13.95;;;6.00;;
69937;SDS011;57248;47.320;15.998;2023-01-16T02:03:06;13.23;;;5.50;;
69937;SDS011;57248;47.320;15.998;2023-01-16T02:05:42;13.00;;;5.90;;
69937;SDS011;57248;47.320;15.998;2023-01-16T02:08:18;12.80;;;5.35;;
69937;SDS011;57248;47.320;15.998;2023-01-16T02:10:53;15.27;;;6.20;;
69937;SDS011;57248;47.320;15.998;2023-01-16T02:13:36;11.02;;;5.18;;
69937;SDS011;57248;47.320;15.998;2023-01-16T02:16:09;12.68;;;5.78;;
69937;SDS011;57248;47.320;15.998;2023-01-16T02:19:00;12.03;;;5.40;;
69937;SDS011;57248;47.320;15.998;2023-01-16T02:34:48;12.63;;;5.10;;
69937;SDS011;57248;47.320;15.998;2023-01-16T02:47:07;11.10;;;5.00;;
69937;SDS011;57248;47.320;15.998;2023-01-16T02:49:59;10.73;;;4.43;;
69937;SDS011;57248;47.320;15.998;2023-01-16T02:54:00;11.10;;;5.00;;
69937;SDS011;57248;47.320;15.998;2023-01-16T02:56:27;12.25;;;4.78;;
69937;SDS011;57248;47.320;15.998;2023-01-16T02:59:14;11.45;;;4.60;;
69937;SDS011;57248;47.320;15.998;2023-01-16T03:01:48;10.52;;;4.90;;
69937;SDS011;57248;47.320;15.998;2023-01-16T03:07:20;10.85;;;4.95;;
69937;SDS011;57248;47.320;15.998;2023-01-16T03:30:47;0.00;;;0.00;;
69937;SDS011;57248;47.320;15.998;2023-01-16T03:33:51;0.20;;;0.00;;
69937;SDS011;57248;47.320;15.998;2023-01-16T03:39:16;0.00;;;0.00;;
69937;SDS011;57248;47.320;15.998;2023-01-16T03:41:53;0.10;;;0.00;;
69937;SDS011;57248;47.320;15.998;2023-01-16T03:44:36;0.10;;;0.00;;
69937;SDS011;57248;47.320;15.998;2023-01-16T03:47:12;0.20;;;0.00;;
69937;SDS011;57248;47.320;15.998;2023-01-16T03:49:52;0.20;;;0.00;;
69937;SDS011;57248;47.320;15.998;2023-01-16T03:52:31;0.90;;;0.00;;
69937;SDS011;57248;47.320;15.998;2023-01-16T03:58:09;0.03;;;0.00;;
69937;SDS011;57248;47.320;15.998;2023-01-16T04:00:54;0.57;;;0.00;;
69937;SDS011;57248;47.320;15.998;2023-01-16T04:03:41;2.65;;;0.57;;
69937;SDS011;57248;47.320;15.998;2023-01-16T04:06:32;2.55;;;0.63;;
69937;SDS011;57248;47.320;15.998;2023-01-16T04:09:07;2.15;;;0.40;;
69937;SDS011;57248;47.320;15.998;2023-01-16T04:11:45;0.80;;;0.00;;
69937;SDS011;57248;47.320;15.998;2023-01-16T04:14:20;1.03;;;0.00;;
69937;SDS011;57248;47.320;15.998;2023-01-16T04:16:55;0.63;;;0.00;;
69937;SDS011;57248;47.320;15.998;2023-01-16T04:19:27;0.52;;;0.00;;
69937;SDS011;57248;47.320;15.998;2023-01-16T04:22:06;0.43;;;0.00;;
69937;SDS011;57248;47.320;15.998;2023-01-16T04:24:46;0.10;;;0.00;;
69937;SDS011;57248;47.320;15.998;2023-01-16T04:27:19;0.10;;;0.00;;
69937;SDS011;57248;47.320;15.998;2023-01-16T04:29:58;0.00;;;0.00;;
69937;SDS011;57248;47.320;15.998;2023-01-16T04:32:30;0.20;;;0.00;;
69937;SDS011;57248;47.320;15.998;2023-01-16T04:34:55;1.30;;;0.00;;
69937;SDS011;57248;47.320;15.998;2023-01-16T04:37:27;0.00;;;0.00;;
69937;SDS011;57248;47.320;15.998;2023-01-16T04:39:59;0.43;;;0.00;;
69937;SDS011;57248;47.320;15.998;2023-01-16T04:42:31;0.10;;;0.00;;
69937;SDS011;57248;47.320;15.998;2023-01-16T04:45:03;0.45;;;0.00;;
69937;SDS011;57248;47.320;15.998;2023-01-16T04:47:35;0.93;;;0.00;;
69937;SDS011;57248;47.320;15.998;2023-01-16T04:50:07;0.20;;;0.00;;
69937;SDS011;57248;47.320;15.998;2023-01-16T04:52:39;0.03;;;0.00;;
69937;SDS011;57248;47.320;15.998;2023-01-16T04:55:12;1.25;;;0.00;;
69937;SDS011;57248;47.320;15.998;2023-01-16T04:57:44;2.13;;;0.10;;
69937;SDS011;57248;47.320;15.998;2023-01-16T05:00:16;0.93;;;0.07;;
69937;SDS011;57248;47.320;15.998;2023-01-16T05:02:48;0.00;;;0.00;;
69937;SDS011;57248;47.320;15.998;2023-01-16T05:05:20;0.35;;;0.00;;
69937;SDS011;57248;47.320;15.998;2023-01-16T05:07:52;0.10;;;0.00;;
69937;SDS011;57248;47.320;15.998;2023-01-16T05:10:43;0.20;;;0.00;;
69937;SDS011;57248;47.320;15.998;2023-01-16T05:13:16;0.10;;;0.00;;
69937;SDS011;57248;47.320;15.998;2023-01-16T05:15:48;0.70;;;0.10;;
69937;SDS011;57248;47.320;15.998;2023-01-16T05:18:20;0.82;;;0.00;;
69937;SDS011;57248;47.320;15.998;2023-01-16T05:20:46;23.52;;;8.65;;
69937;SDS011;57248;47.320;15.998;2023-01-16T05:23:18;18.15;;;7.07;;
69937;SDS011;57248;47.320;15.998;2023-01-16T05:25:57;10.77;;;4.10;;
69937;SDS011;57248;47.320;15.998;2023-01-16T05:28:29;2.70;;;0.65;;
69937;SDS011;57248;47.320;15.998;2023-01-16T05:31:01;1.15;;;0.10;;
69937;SDS011;57248;47.320;15.998;2023-01-16T05:33:33;1.27;;;0.00;;
69937;SDS011;57248;47.320;15.998;2023-01-16T05:36:05;1.13;;;0.10;;
69937;SDS011;57248;47.320;15.998;2023-01-16T05:38:37;2.23;;;0.20;;
69937;SDS011;57248;47.320;15.998;2023-01-16T05:41:09;0.90;;;0.00;;
69937;SDS011;57248;47.320;15.998;2023-01-16T05:43:41;0.85;;;0.00;;
69937;SDS011;57248;47.320;15.998;2023-01-16T05:46:14;2.20;;;0.00;;
69937;SDS011;57248;47.320;15.998;2023-01-16T05:48:46;2.58;;;0.10;;
69937;SDS011;57248;47.320;15.998;2023-01-16T05:51:18;0.90;;;0.00;;
69937;SDS011;57248;47.320;15.998;2023-01-16T05:53:50;2.03;;;0.40;;
69937;SDS011;57248;47.320;15.998;2023-01-16T05:56:23;1.85;;;0.20;;
69937;SDS011;57248;47.320;15.998;2023-01-16T05:58:55;0.55;;;0.00;;
69937;SDS011;57248;47.320;15.998;2023-01-16T06:01:28;0.50;;;0.00;;
69937;SDS011;57248;47.320;15.998;2023-01-16T06:04:00;2.53;;;0.30;;
69937;SDS011;57248;47.320;15.998;2023-01-16T06:06:32;5.25;;;1.30;;
69937;SDS011;57248;47.320;15.998;2023-01-16T06:09:04;1.20;;;0.10;;
69937;SDS011;57248;47.320;15.998;2023-01-16T06:11:36;1.75;;;0.00;;
69937;SDS011;57248;47.320;15.998;2023-01-16T06:14:08;0.95;;;0.00;;
69937;SDS011;57248;47.320;15.998;2023-01-16T06:16:40;0.80;;;0.00;;
69937;SDS011;57248;47.320;15.998;2023-01-16T06:19:12;1.98;;;0.10;;
69937;SDS011;57248;47.320;15.998;2023-01-16T06:21:44;0.75;;;0.00;;
69937;SDS011;57248;47.320;15.998;2023-01-16T06:24:16;0.65;;;0.05;;
69937;SDS011;57248;47.320;15.998;2023-01-16T06:27:02;3.35;;;0.10;;
69937;SDS011;57248;47.320;15.998;2023-01-16T06:29:34;1.10;;;0.10;;
69937;SDS011;57248;47.320;15.998;2023-01-16T06:32:06;1.83;;;0.10;;
69937;SDS011;57248;47.320;15.998;2023-01-16T06:34:38;1.85;;;0.20;;
69937;SDS011;57248;47.320;15.998;2023-01-16T06:37:10;2.78;;;0.30;;
69937;SDS011;57248;47.320;15.998;2023-01-16T06:39:43;2.80;;;0.22;;
69937;SDS011;57248;47.320;15.998;2023-01-16T06:42:15;2.23;;;0.13;;
69937;SDS011;57248;47.320;15.998;2023-01-16T06:44:40;2.25;;;0.00;;
69937;SDS011;57248;47.320;15.998;2023-01-16T06:47:12;0.50;;;0.00;;
69937;SDS011;57248;47.320;15.998;2023-01-16T06:49:44;0.40;;;0.00;;
69937;SDS011;57248;47.320;15.998;2023-01-16T06:52:16;0.47;;;0.00;;
69937;SDS011;57248;47.320;15.998;2023-01-16T06:54:41;0.40;;;0.00;;
69937;SDS011;57248;47.320;15.998;2023-01-16T06:57:13;0.75;;;0.00;;
69937;SDS011;57248;47.320;15.998;2023-01-16T06:59:46;0.80;;;0.00;;
69937;SDS011;57248;47.320;15.998;2023-01-16T07:02:18;5.78;;;1.17;;
69937;SDS011;57248;47.320;15.998;2023-01-16T07:04:50;8.03;;;2.50;;
69937;SDS011;57248;47.320;15.998;2023-01-16T07:07:22;7.57;;;1.88;;
69937;SDS011;57248;47.320;15.998;2023-01-16T07:09:55;9.80;;;3.10;;
69937;SDS011;57248;47.320;15.998;2023-01-16T07:12:27;20.83;;;7.03;;
69937;SDS011;57248;47.320;15.998;2023-01-16T07:14:59;29.80;;;10.32;;
69937;SDS011;57248;47.320;15.998;2023-01-16T07:17:50;14.50;;;4.00;;
69937;SDS011;57248;47.320;15.998;2023-01-16T07:20:41;6.07;;;1.50;;
69937;SDS011;57248;47.320;15.998;2023-01-16T07:23:32;2.80;;;0.40;;
69937;SDS011;57248;47.320;15.998;2023-01-16T07:26:05;3.15;;;0.38;;
69937;SDS011;57248;47.320;15.998;2023-01-16T07:28:45;2.30;;;0.28;;
69937;SDS011;57248;47.320;15.998;2023-01-16T07:31:19;3.70;;;0.90;;
69937;SDS011;57248;47.320;15.998;2023-01-16T07:33:52;8.63;;;1.67;;
69937;SDS011;57248;47.320;15.998;2023-01-16T07:36:18;6.22;;;2.20;;
69937;SDS011;57248;47.320;15.998;2023-01-16T07:38:50;7.07;;;2.33;;
69937;SDS011;57248;47.320;15.998;2023-01-16T07:41:22;4.88;;;1.42;;
69937;SDS011;57248;47.320;15.998;2023-01-16T07:43:54;3.83;;;0.87;;
69937;SDS011;57248;47.320;15.998;2023-01-16T07:46:26;3.78;;;1.10;;
69937;SDS011;57248;47.320;15.998;2023-01-16T07:48:58;3.05;;;0.70;;
69937;SDS011;57248;47.320;15.998;2023-01-16T07:51:30;2.47;;;0.40;;
69937;SDS011;57248;47.320;15.998;2023-01-16T07:54:02;2.30;;;0.30;;
69937;SDS011;57248;47.320;15.998;2023-01-16T07:56:34;3.87;;;0.40;;
69937;SDS011;57248;47.320;15.998;2023-01-16T07:59:06;1.88;;;0.20;;
69937;SDS011;57248;47.320;15.998;2023-01-16T08:01:39;1.85;;;0.30;;
69937;SDS011;57248;47.320;15.998;2023-01-16T08:04:04;1.80;;;0.33;;
69937;SDS011;57248;47.320;15.998;2023-01-16T08:06:36;2.53;;;0.60;;
69937;SDS011;57248;47.320;15.998;2023-01-16T08:09:09;2.92;;;0.65;;
69937;SDS011;57248;47.320;15.998;2023-01-16T08:11:41;2.75;;;0.52;;
69937;SDS011;57248;47.320;15.998;2023-01-16T08:14:19;2.77;;;0.60;;
69937;SDS011;57248;47.320;15.998;2023-01-16T08:16:45;3.30;;;0.57;;
69937;SDS011;57248;47.320;15.998;2023-01-16T08:19:17;2.63;;;0.60;;
69937;SDS011;57248;47.320;15.998;2023-01-16T08:21:49;2.92;;;0.70;;
69937;SDS011;57248;47.320;15.998;2023-01-16T08:24:21;3.97;;;0.70;;
69937;SDS011;57248;47.320;15.998;2023-01-16T08:27:01;4.38;;;0.80;;
69937;SDS011;57248;47.320;15.998;2023-01-16T08:29:33;4.93;;;1.02;;
69937;SDS011;57248;47.320;15.998;2023-01-16T08:32:06;2.93;;;0.80;;
69937;SDS011;57248;47.320;15.998;2023-01-16T08:34:38;3.60;;;0.80;;
69937;SDS011;57248;47.320;15.998;2023-01-16T08:37:10;2.63;;;0.80;;
69937;SDS011;57248;47.320;15.998;2023-01-16T08:39:36;3.97;;;1.10;;
69937;SDS011;57248;47.320;15.998;2023-01-16T08:42:08;2.60;;;0.63;;
69937;SDS011;57248;47.320;15.998;2023-01-16T08:44:58;2.30;;;0.40;;
69937;SDS011;57248;47.320;15.998;2023-01-16T08:47:49;4.75;;;0.60;;
69937;SDS011;57248;47.320;15.998;2023-01-16T08:50:40;3.13;;;0.70;;
69937;SDS011;57248;47.320;15.998;2023-01-16T08:53:31;9.33;;;3.23;;
69937;SDS011;57248;47.320;15.998;2023-01-16T08:56:04;5.10;;;2.15;;
69937;SDS011;57248;47.320;15.998;2023-01-16T08:58:30;6.50;;;1.90;;
69937;SDS011;57248;47.320;15.998;2023-01-16T09:01:02;4.90;;;1.70;;
69937;SDS011;57248;47.320;15.998;2023-01-16T09:03:28;4.10;;;1.43;;
69937;SDS011;57248;47.320;15.998;2023-01-16T09:06:00;4.88;;;1.30;;
69937;SDS011;57248;47.320;15.998;2023-01-16T09:08:32;5.63;;;1.55;;
69937;SDS011;57248;47.320;15.998;2023-01-16T09:11:04;4.80;;;1.80;;
69937;SDS011;57248;47.320;15.998;2023-01-16T09:13:55;4.57;;;1.77;;
69937;SDS011;57248;47.320;15.998;2023-01-16T09:16:31;4.00;;;1.10;;
69937;SDS011;57248;47.320;15.998;2023-01-16T09:19:03;5.88;;;1.42;;
69937;SDS011;57248;47.320;15.998;2023-01-16T09:21:35;4.43;;;1.30;;
69937;SDS011;57248;47.320;15.998;2023-01-16T09:24:07;3.80;;;1.10;;
69937;SDS011;57248;47.320;15.998;2023-01-16T09:26:55;3.95;;;1.23;;
69937;SDS011;57248;47.320;15.998;2023-01-16T09:29:27;3.70;;;1.17;;
69937;SDS011;57248;47.320;15.998;2023-01-16T09:32:00;4.70;;;1.23;;
69937;SDS011;57248;47.320;15.998;2023-01-16T09:34:38;6.03;;;1.50;;
69937;SDS011;57248;47.320;15.998;2023-01-16T09:37:11;4.27;;;1.23;;
69937;SDS011;57248;47.320;15.998;2023-01-16T09:39:43;3.83;;;1.38;;
69937;SDS011;57248;47.320;15.998;2023-01-16T09:45:17;5.30;;;1.50;;
69937;SDS011;57248;47.320;15.998;2023-01-16T09:47:53;4.18;;;1.30;;
69937;SDS011;57248;47.320;15.998;2023-01-16T09:50:32;4.83;;;1.50;;
69937;SDS011;57248;47.320;15.998;2023-01-16T09:53:17;4.22;;;1.20;;
69937;SDS011;57248;47.320;15.998;2023-01-16T09:56:18;4.07;;;1.27;;
69937;SDS011;57248;47.320;15.998;2023-01-16T09:59:23;4.00;;;1.20;;
69937;SDS011;57248;47.320;15.998;2023-01-16T10:02:14;5.57;;;2.20;;
69937;SDS011;57248;47.320;15.998;2023-01-16T10:05:03;5.93;;;2.37;;
69937;SDS011;57248;47.320;15.998;2023-01-16T10:07:43;5.60;;;2.35;;
69937;SDS011;57248;47.320;15.998;2023-01-16T10:10:37;5.18;;;1.92;;
69937;SDS011;57248;47.320;15.998;2023-01-16T10:13:30;4.63;;;1.70;;
69937;SDS011;57248;47.320;15.998;2023-01-16T10:16:20;5.78;;;2.00;;
69937;SDS011;57248;47.320;15.998;2023-01-16T10:19:32;6.83;;;2.00;;
69937;SDS011;57248;47.320;15.998;2023-01-16T10:22:20;6.72;;;1.88;;
69937;SDS011;57248;47.320;15.998;2023-01-16T10:30:50;6.35;;;1.60;;
69937;SDS011;57248;47.320;15.998;2023-01-16T10:33:41;4.23;;;1.23;;
69937;SDS011;57248;47.320;15.998;2023-01-16T10:36:18;4.03;;;1.00;;
69937;SDS011;57248;47.320;15.998;2023-01-16T10:38:54;3.80;;;1.23;;
69937;SDS011;57248;47.320;15.998;2023-01-16T10:41:35;3.72;;;1.23;;
69937;SDS011;57248;47.320;15.998;2023-01-16T10:44:34;4.88;;;1.75;;
69937;SDS011;57248;47.320;15.998;2023-01-16T10:47:31;4.87;;;1.60;;
69937;SDS011;57248;47.320;15.998;2023-01-16T10:50:23;4.90;;;1.67;;
69937;SDS011;57248;47.320;15.998;2023-01-16T10:52:57;9.48;;;3.53;;
69937;SDS011;57248;47.320;15.998;2023-01-16T10:55:29;12.73;;;5.32;;
69937;SDS011;57248;47.320;15.998;2023-01-16T10:58:11;9.25;;;3.42;;
69937;SDS011;57248;47.320;15.998;2023-01-16T11:00:48;6.40;;;2.63;;
69937;SDS011;57248;47.320;15.998;2023-01-16T11:06:26;3.65;;;0.68;;
69937;SDS011;57248;47.320;15.998;2023-01-16T11:09:00;3.92;;;0.85;;
69937;SDS011;57248;47.320;15.998;2023-01-16T11:11:36;3.35;;;0.60;;
69937;SDS011;57248;47.320;15.998;2023-01-16T11:14:31;4.17;;;0.87;;
69937;SDS011;57248;47.320;15.998;2023-01-16T11:17:26;17.42;;;9.57;;
69937;SDS011;57248;47.320;15.998;2023-01-16T11:20:24;20.75;;;11.75;;
69937;SDS011;57248;47.320;15.998;2023-01-16T11:23:15;5.32;;;1.63;;
69937;SDS011;57248;47.320;15.998;2023-01-16T11:25:55;4.13;;;0.80;;
69937;SDS011;57248;47.320;15.998;2023-01-16T11:28:30;2.47;;;0.53;;
69937;SDS011;57248;47.320;15.998;2023-01-16T11:31:12;3.55;;;0.63;;
69937;SDS011;57248;47.320;15.998;2023-01-16T11:33:52;8.27;;;3.70;;
69937;SDS011;57248;47.320;15.998;2023-01-16T11:36:32;5.38;;;1.90;;
69937;SDS011;57248;47.320;15.998;2023-01-16T11:39:02;4.18;;;1.00;;
69937;SDS011;57248;47.320;15.998;2023-01-16T11:41:36;9.20;;;3.70;;
69937;SDS011;57248;47.320;15.998;2023-01-16T11:47:11;4.43;;;1.33;;
69937;SDS011;57248;47.320;15.998;2023-01-16T11:49:49;3.83;;;0.90;;
69937;SDS011;57248;47.320;15.998;2023-01-16T11:52:22;3.83;;;0.80;;
69937;SDS011;57248;47.320;15.998;2023-01-16T11:55:03;2.50;;;0.70;;
69937;SDS011;57248;47.320;15.998;2023-01-16T11:57:53;4.38;;;1.33;;
69937;SDS011;57248;47.320;15.998;2023-01-16T12:03:53;5.57;;;2.30;;
69937;SDS011;57248;47.320;15.998;2023-01-16T12:06:51;3.80;;;1.20;;
69937;SDS011;57248;47.320;15.998;2023-01-16T12:12:50;3.75;;;1.20;;
69937;SDS011;57248;47.320;15.998;2023-01-16T12:15:30;4.85;;;1.42;;
69937;SDS011;57248;47.320;15.998;2023-01-16T12:21:32;4.85;;;1.25;;
69937;SDS011;57248;47.320;15.998;2023-01-16T12:30:07;6.05;;;1.35;;
69937;SDS011;57248;47.320;15.998;2023-01-16T12:38:36;6.10;;;1.43;;
69937;SDS011;57248;47.320;15.998;2023-01-16T12:41:41;6.45;;;1.80;;
69937;SDS011;57248;47.320;15.998;2023-01-16T12:54:17;5.70;;;1.00;;
69937;SDS011;57248;47.320;15.998;2023-01-16T13:00:02;3.50;;;0.90;;
69937;SDS011;57248;47.320;15.998;2023-01-16T13:05:28;3.47;;;0.75;;
69937;SDS011;57248;47.320;15.998;2023-01-16T13:11:04;4.10;;;1.17;;
69937;SDS011;57248;47.320;15.998;2023-01-16T13:14:13;3.42;;;0.85;;
69937;SDS011;57248;47.320;15.998;2023-01-16T13:16:49;5.13;;;1.35;;
69937;SDS011;57248;47.320;15.998;2023-01-16T13:19:31;5.80;;;1.13;;
69937;SDS011;57248;47.320;15.998;2023-01-16T13:25:02;5.05;;;1.45;;
69937;SDS011;57248;47.320;15.998;2023-01-16T13:27:52;9.43;;;2.70;;
69937;SDS011;57248;47.320;15.998;2023-01-16T13:30:31;5.32;;;1.90;;
69937;SDS011;57248;47.320;15.998;2023-01-16T13:33:04;5.32;;;1.38;;
69937;SDS011;57248;47.320;15.998;2023-01-16T13:35:53;6.47;;;2.10;;
69937;SDS011;57248;47.320;15.998;2023-01-16T13:41:41;5.93;;;1.70;;
69937;SDS011;57248;47.320;15.998;2023-01-16T13:44:20;7.38;;;2.75;;
69937;SDS011;57248;47.320;15.998;2023-01-16T13:47:14;4.03;;;1.08;;
69937;SDS011;57248;47.320;15.998;2023-01-16T13:49:54;5.37;;;1.50;;
69937;SDS011;57248;47.320;15.998;2023-01-16T13:52:39;5.32;;;1.88;;
69937;SDS011;57248;47.320;15.998;2023-01-16T13:55:33;5.45;;;1.30;;
69937;SDS011;57248;47.320;15.998;2023-01-16T13:58:07;5.82;;;1.40;;
69937;SDS011;57248;47.320;15.998;2023-01-16T14:01:01;5.15;;;1.92;;
69937;SDS011;57248;47.320;15.998;2023-01-16T14:03:35;6.37;;;1.70;;
69937;SDS011;57248;47.320;15.998;2023-01-16T14:11:58;4.80;;;1.50;;
69937;SDS011;57248;47.320;15.998;2023-01-16T14:14:47;4.32;;;1.40;;
69937;SDS011;57248;47.320;15.998;2023-01-16T14:18:20;5.53;;;1.20;;
69937;SDS011;57248;47.320;15.998;2023-01-16T14:20:41;5.85;;;1.35;;
69937;SDS011;57248;47.320;15.998;2023-01-16T14:23:23;4.10;;;1.23;;
69937;SDS011;57248;47.320;15.998;2023-01-16T14:29:30;5.28;;;1.40;;
69937;SDS011;57248;47.320;15.998;2023-01-16T14:37:45;7.53;;;3.30;;
69937;SDS011;57248;47.320;15.998;2023-01-16T14:40:31;6.25;;;2.00;;
69937;SDS011;57248;47.320;15.998;2023-01-16T14:43:27;5.30;;;1.65;;
69937;SDS011;57248;47.320;15.998;2023-01-16T14:46:27;5.97;;;1.60;;
69937;SDS011;57248;47.320;15.998;2023-01-16T14:49:40;7.97;;;3.30;;
69937;SDS011;57248;47.320;15.998;2023-01-16T14:55:40;5.53;;;1.92;;
69937;SDS011;57248;47.320;15.998;2023-01-16T14:58:20;6.63;;;2.15;;
69937;SDS011;57248;47.320;15.998;2023-01-16T15:00:57;6.70;;;2.20;;
69937;SDS011;57248;47.320;15.998;2023-01-16T15:03:49;8.02;;;2.45;;
69937;SDS011;57248;47.320;15.998;2023-01-16T15:06:31;8.98;;;2.65;;
69937;SDS011;57248;47.320;15.998;2023-01-16T15:09:14;6.40;;;2.28;;
69937;SDS011;57248;47.320;15.998;2023-01-16T15:12:11;5.88;;;2.03;;
69937;SDS011;57248;47.320;15.998;2023-01-16T15:14:53;5.13;;;1.73;;
69937;SDS011;57248;47.320;15.998;2023-01-16T15:20:28;6.95;;;2.10;;
69937;SDS011;57248;47.320;15.998;2023-01-16T15:28:53;6.20;;;1.83;;
69937;SDS011;57248;47.320;15.998;2023-01-16T15:36:47;4.30;;;1.50;;
69937;SDS011;57248;47.320;15.998;2023-01-16T15:39:25;4.93;;;1.40;;
69937;SDS011;57248;47.320;15.998;2023-01-16T15:42:07;4.90;;;1.10;;
69937;SDS011;57248;47.320;15.998;2023-01-16T15:45:24;3.65;;;1.08;;
69937;SDS011;57248;47.320;15.998;2023-01-16T15:48:25;7.63;;;2.67;;
69937;SDS011;57248;47.320;15.998;2023-01-16T15:51:07;5.45;;;1.70;;
69937;SDS011;57248;47.320;15.998;2023-01-16T15:53:43;5.28;;;1.40;;
69937;SDS011;57248;47.320;15.998;2023-01-16T15:59:19;5.03;;;1.55;;
69937;SDS011;57248;47.320;15.998;2023-01-16T16:02:13;5.53;;;1.58;;
69937;SDS011;57248;47.320;15.998;2023-01-16T16:04:51;5.40;;;1.67;;
69937;SDS011;57248;47.320;15.998;2023-01-16T16:07:25;8.98;;;3.30;;
69937;SDS011;57248;47.320;15.998;2023-01-16T16:09:59;8.53;;;3.17;;
69937;SDS011;57248;47.320;15.998;2023-01-16T16:12:32;9.23;;;3.00;;
69937;SDS011;57248;47.320;15.998;2023-01-16T16:15:16;8.57;;;3.33;;
69937;SDS011;57248;47.320;15.998;2023-01-16T16:18:15;7.78;;;2.65;;
69937;SDS011;57248;47.320;15.998;2023-01-16T16:20:49;4.32;;;1.20;;
69937;SDS011;57248;47.320;15.998;2023-01-16T16:23:22;6.23;;;1.70;;
69937;SDS011;57248;47.320;15.998;2023-01-16T16:26:04;6.63;;;1.75;;
69937;SDS011;57248;47.320;15.998;2023-01-16T16:28:52;7.90;;;2.38;;
69937;SDS011;57248;47.320;15.998;2023-01-16T16:31:29;6.25;;;2.25;;
69937;SDS011;57248;47.320;15.998;2023-01-16T16:34:05;6.88;;;2.05;;
69937;SDS011;57248;47.320;15.998;2023-01-16T16:36:46;6.37;;;2.10;;
69937;SDS011;57248;47.320;15.998;2023-01-16T16:39:35;5.53;;;1.85;;
69937;SDS011;57248;47.320;15.998;2023-01-16T16:45:10;7.15;;;2.53;;
69937;SDS011;57248;47.320;15.998;2023-01-16T16:50:51;8.50;;;3.10;;
69937;SDS011;57248;47.320;15.998;2023-01-16T16:53:46;6.18;;;2.20;;
69937;SDS011;57248;47.320;15.998;2023-01-16T16:56:23;6.30;;;2.03;;
69937;SDS011;57248;47.320;15.998;2023-01-16T16:58:57;6.93;;;2.20;;
69937;SDS011;57248;47.320;15.998;2023-01-16T17:01:29;5.80;;;1.88;;
69937;SDS011;57248;47.320;15.998;2023-01-16T17:04:03;7.27;;;2.40;;
69937;SDS011;57248;47.320;15.998;2023-01-16T17:06:37;5.13;;;1.73;;
69937;SDS011;57248;47.320;15.998;2023-01-16T17:09:10;7.82;;;2.20;;
69937;SDS011;57248;47.320;15.998;2023-01-16T17:11:44;7.85;;;2.75;;
69937;SDS011;57248;47.320;15.998;2023-01-16T17:14:17;6.68;;;1.48;;
69937;SDS011;57248;47.320;15.998;2023-01-16T17:16:49;4.80;;;1.37;;
69937;SDS011;57248;47.320;15.998;2023-01-16T17:19:22;4.68;;;1.35;;
69937;SDS011;57248;47.320;15.998;2023-01-16T17:22:01;8.95;;;3.08;;
69937;SDS011;57248;47.320;15.998;2023-01-16T17:24:33;4.35;;;1.02;;
69937;SDS011;57248;47.320;15.998;2023-01-16T17:27:06;4.18;;;0.80;;
69937;SDS011;57248;47.320;15.998;2023-01-16T17:29:46;6.43;;;1.43;;
69937;SDS011;57248;47.320;15.998;2023-01-16T17:32:25;4.15;;;1.25;;
69937;SDS011;57248;47.320;15.998;2023-01-16T17:35:00;4.40;;;1.17;;
69937;SDS011;57248;47.320;15.998;2023-01-16T17:37:32;33.47;;;17.20;;
69937;SDS011;57248;47.320;15.998;2023-01-16T17:40:04;5.60;;;1.73;;
69937;SDS011;57248;47.320;15.998;2023-01-16T17:42:37;11.20;;;2.53;;
69937;SDS011;57248;47.320;15.998;2023-01-16T17:45:30;8.30;;;1.50;;
69937;SDS011;57248;47.320;15.998;2023-01-16T17:48:33;5.43;;;2.50;;
69937;SDS011;57248;47.320;15.998;2023-01-16T17:51:04;6.85;;;1.88;;
69937;SDS011;57248;47.320;15.998;2023-01-16T17:53:36;4.65;;;1.13;;
69937;SDS011;57248;47.320;15.998;2023-01-16T17:56:08;5.57;;;1.40;;
69937;SDS011;57248;47.320;15.998;2023-01-16T17:58:42;4.72;;;1.30;;
69937;SDS011;57248;47.320;15.998;2023-01-16T18:01:34;5.03;;;1.50;;
69937;SDS011;57248;47.320;15.998;2023-01-16T18:04:09;4.82;;;1.25;;
69937;SDS011;57248;47.320;15.998;2023-01-16T18:06:41;5.70;;;1.80;;
69937;SDS011;57248;47.320;15.998;2023-01-16T18:09:13;4.93;;;1.97;;
69937;SDS011;57248;47.320;15.998;2023-01-16T18:11:46;6.10;;;1.77;;
69937;SDS011;57248;47.320;15.998;2023-01-16T18:14:37;5.60;;;1.90;;